sensor_id;sensor_type;location;lat;lon;timestamp;P1;durP1;ratioP1;P2;durP2;ratioP2
55078;SDS011;55187;49.496;6.010;2022-07-06T00:00:41;5.90;;;1.80;;
55078;SDS011;55187;49.496;6.010;2022-07-06T00:03:07;2.00;;;1.40;;
55078;SDS011;55187;49.496;6.010;2022-07-06T00:05:34;2.17;;;1.42;;
55078;SDS011;55187;49.496;6.010;2022-07-06T00:08:00;4.72;;;1.30;;
55078;SDS011;55187;49.496;6.010;2022-07-06T00:10:27;2.38;;;1.90;;
55078;SDS011;55187;49.496;6.010;2022-07-06T00:12:53;6.18;;;1.73;;
55078;SDS011;55187;49.496;6.010;2022-07-06T00:15:19;2.88;;;1.90;;
55078;SDS011;55187;49.496;6.010;2022-07-06T00:17:46;3.10;;;1.75;;
55078;SDS011;55187;49.496;6.010;2022-07-06T00:20:12;1.02;;;0.90;;
55078;SDS011;55187;49.496;6.010;2022-07-06T00:22:38;4.85;;;2.08;;
55078;SDS011;55187;49.496;6.010;2022-07-06T00:25:05;5.57;;;1.90;;
55078;SDS011;55187;49.496;6.010;2022-07-06T00:27:32;3.80;;;1.35;;
55078;SDS011;55187;49.496;6.010;2022-07-06T00:29:58;8.70;;;1.73;;
55078;SDS011;55187;49.496;6.010;2022-07-06T00:32:24;3.80;;;1.38;;
55078;SDS011;55187;49.496;6.010;2022-07-06T00:34:53;2.67;;;1.40;;
55078;SDS011;55187;49.496;6.010;2022-07-06T00:37:20;5.72;;;2.03;;
55078;SDS011;55187;49.496;6.010;2022-07-06T00:39:46;2.35;;;1.67;;
55078;SDS011;55187;49.496;6.010;2022-07-06T00:42:13;4.30;;;1.85;;
55078;SDS011;55187;49.496;6.010;2022-07-06T00:44:39;3.22;;;1.70;;
55078;SDS011;55187;49.496;6.010;2022-07-06T00:47:06;2.53;;;1.80;;
55078;SDS011;55187;49.496;6.010;2022-07-06T00:49:34;4.80;;;1.95;;
55078;SDS011;55187;49.496;6.010;2022-07-06T00:52:12;13.77;;;1.73;;
55078;SDS011;55187;49.496;6.010;2022-07-06T00:54:39;1.85;;;1.55;;
55078;SDS011;55187;49.496;6.010;2022-07-06T00:57:09;2.67;;;1.90;;
55078;SDS011;55187;49.496;6.010;2022-07-06T00:59:35;2.03;;;1.73;;
55078;SDS011;55187;49.496;6.010;2022-07-06T01:02:02;3.00;;;1.80;;
55078;SDS011;55187;49.496;6.010;2022-07-06T01:04:28;6.53;;;1.92;;
55078;SDS011;55187;49.496;6.010;2022-07-06T01:06:55;2.38;;;1.23;;
55078;SDS011;55187;49.496;6.010;2022-07-06T01:09:23;2.53;;;1.42;;
55078;SDS011;55187;49.496;6.010;2022-07-06T01:11:52;3.22;;;1.35;;
55078;SDS011;55187;49.496;6.010;2022-07-06T01:14:19;2.65;;;1.50;;
55078;SDS011;55187;49.496;6.010;2022-07-06T01:16:46;3.97;;;1.55;;
55078;SDS011;55187;49.496;6.010;2022-07-06T01:19:13;5.90;;;1.50;;
55078;SDS011;55187;49.496;6.010;2022-07-06T01:21:39;2.40;;;1.40;;
55078;SDS011;55187;49.496;6.010;2022-07-06T01:24:06;2.70;;;1.30;;
55078;SDS011;55187;49.496;6.010;2022-07-06T01:26:33;2.53;;;1.67;;
55078;SDS011;55187;49.496;6.010;2022-07-06T01:29:00;3.15;;;1.80;;
55078;SDS011;55187;49.496;6.010;2022-07-06T01:31:26;6.03;;;2.10;;
55078;SDS011;55187;49.496;6.010;2022-07-06T01:33:56;2.38;;;1.50;;
55078;SDS011;55187;49.496;6.010;2022-07-06T01:36:23;3.55;;;1.80;;
55078;SDS011;55187;49.496;6.010;2022-07-06T01:38:51;3.80;;;1.65;;
55078;SDS011;55187;49.496;6.010;2022-07-06T01:41:20;1.30;;;1.20;;
55078;SDS011;55187;49.496;6.010;2022-07-06T01:43:47;3.17;;;1.48;;
55078;SDS011;55187;49.496;6.010;2022-07-06T01:46:15;2.33;;;1.65;;
55078;SDS011;55187;49.496;6.010;2022-07-06T01:48:41;5.25;;;2.08;;
55078;SDS011;55187;49.496;6.010;2022-07-06T01:51:08;2.47;;;2.00;;
55078;SDS011;55187;49.496;6.010;2022-07-06T01:53:36;3.25;;;2.03;;
55078;SDS011;55187;49.496;6.010;2022-07-06T01:56:05;4.35;;;2.67;;
55078;SDS011;55187;49.496;6.010;2022-07-06T01:58:32;2.88;;;1.85;;
55078;SDS011;55187;49.496;6.010;2022-07-06T02:01:07;13.73;;;2.35;;
55078;SDS011;55187;49.496;6.010;2022-07-06T02:03:35;2.50;;;1.63;;
55078;SDS011;55187;49.496;6.010;2022-07-06T02:06:03;4.55;;;1.90;;
55078;SDS011;55187;49.496;6.010;2022-07-06T02:08:30;3.95;;;1.75;;
55078;SDS011;55187;49.496;6.010;2022-07-06T02:10:56;2.78;;;2.15;;
55078;SDS011;55187;49.496;6.010;2022-07-06T02:13:23;4.68;;;1.95;;
55078;SDS011;55187;49.496;6.010;2022-07-06T02:15:50;2.13;;;1.80;;
55078;SDS011;55187;49.496;6.010;2022-07-06T02:18:16;3.83;;;2.40;;
55078;SDS011;55187;49.496;6.010;2022-07-06T02:20:43;3.97;;;2.13;;
55078;SDS011;55187;49.496;6.010;2022-07-06T02:23:10;4.32;;;2.10;;
55078;SDS011;55187;49.496;6.010;2022-07-06T02:25:36;2.15;;;1.73;;
55078;SDS011;55187;49.496;6.010;2022-07-06T02:28:03;4.60;;;2.25;;
55078;SDS011;55187;49.496;6.010;2022-07-06T02:30:29;3.95;;;2.05;;
55078;SDS011;55187;49.496;6.010;2022-07-06T02:32:56;6.18;;;1.88;;
55078;SDS011;55187;49.496;6.010;2022-07-06T02:35:23;6.22;;;2.00;;
55078;SDS011;55187;49.496;6.010;2022-07-06T02:37:49;3.05;;;1.70;;
55078;SDS011;55187;49.496;6.010;2022-07-06T02:40:16;8.20;;;1.65;;
55078;SDS011;55187;49.496;6.010;2022-07-06T02:42:42;3.03;;;2.67;;
55078;SDS011;55187;49.496;6.010;2022-07-06T02:45:09;5.22;;;2.25;;
55078;SDS011;55187;49.496;6.010;2022-07-06T02:47:36;2.47;;;1.95;;
55078;SDS011;55187;49.496;6.010;2022-07-06T02:50:04;2.17;;;1.65;;
55078;SDS011;55187;49.496;6.010;2022-07-06T02:52:31;5.00;;;1.73;;
55078;SDS011;55187;49.496;6.010;2022-07-06T02:55:00;3.15;;;1.70;;
55078;SDS011;55187;49.496;6.010;2022-07-06T02:57:26;5.00;;;1.80;;
55078;SDS011;55187;49.496;6.010;2022-07-06T02:59:53;3.05;;;1.80;;
55078;SDS011;55187;49.496;6.010;2022-07-06T03:02:20;5.00;;;1.98;;
55078;SDS011;55187;49.496;6.010;2022-07-06T03:04:47;3.28;;;1.75;;
55078;SDS011;55187;49.496;6.010;2022-07-06T03:07:14;2.38;;;2.15;;
55078;SDS011;55187;49.496;6.010;2022-07-06T03:09:41;4.28;;;2.25;;
55078;SDS011;55187;49.496;6.010;2022-07-06T03:12:08;2.65;;;1.52;;
55078;SDS011;55187;49.496;6.010;2022-07-06T03:14:35;4.30;;;2.13;;
55078;SDS011;55187;49.496;6.010;2022-07-06T03:17:02;2.67;;;2.15;;
55078;SDS011;55187;49.496;6.010;2022-07-06T03:19:28;2.85;;;2.05;;
55078;SDS011;55187;49.496;6.010;2022-07-06T03:21:56;2.42;;;1.50;;
55078;SDS011;55187;49.496;6.010;2022-07-06T03:24:23;2.72;;;1.90;;
55078;SDS011;55187;49.496;6.010;2022-07-06T03:26:50;3.40;;;1.90;;
55078;SDS011;55187;49.496;6.010;2022-07-06T03:29:16;2.67;;;1.88;;
55078;SDS011;55187;49.496;6.010;2022-07-06T03:31:43;3.95;;;2.40;;
55078;SDS011;55187;49.496;6.010;2022-07-06T03:34:09;5.90;;;2.03;;
55078;SDS011;55187;49.496;6.010;2022-07-06T03:36:36;4.45;;;2.38;;
55078;SDS011;55187;49.496;6.010;2022-07-06T03:39:03;2.80;;;1.88;;
55078;SDS011;55187;49.496;6.010;2022-07-06T03:41:30;4.25;;;2.25;;
55078;SDS011;55187;49.496;6.010;2022-07-06T03:43:57;2.42;;;2.03;;
55078;SDS011;55187;49.496;6.010;2022-07-06T03:46:24;2.00;;;1.80;;
55078;SDS011;55187;49.496;6.010;2022-07-06T03:48:51;3.47;;;2.17;;
55078;SDS011;55187;49.496;6.010;2022-07-06T03:51:18;3.42;;;2.22;;
55078;SDS011;55187;49.496;6.010;2022-07-06T03:53:45;5.38;;;2.30;;
55078;SDS011;55187;49.496;6.010;2022-07-06T03:56:12;3.33;;;2.35;;
55078;SDS011;55187;49.496;6.010;2022-07-06T03:59:04;2.58;;;2.08;;
55078;SDS011;55187;49.496;6.010;2022-07-06T04:01:34;6.25;;;2.42;;
55078;SDS011;55187;49.496;6.010;2022-07-06T04:04:00;3.08;;;2.28;;
55078;SDS011;55187;49.496;6.010;2022-07-06T04:06:28;4.45;;;2.85;;
55078;SDS011;55187;49.496;6.010;2022-07-06T04:08:57;6.93;;;2.97;;
55078;SDS011;55187;49.496;6.010;2022-07-06T04:11:23;3.42;;;2.08;;
55078;SDS011;55187;49.496;6.010;2022-07-06T04:13:49;7.10;;;2.25;;
55078;SDS011;55187;49.496;6.010;2022-07-06T04:16:16;5.10;;;2.75;;
55078;SDS011;55187;49.496;6.010;2022-07-06T04:18:43;12.32;;;3.28;;
55078;SDS011;55187;49.496;6.010;2022-07-06T04:21:10;4.60;;;2.72;;
55078;SDS011;55187;49.496;6.010;2022-07-06T04:23:37;3.72;;;2.88;;
55078;SDS011;55187;49.496;6.010;2022-07-06T04:26:06;6.28;;;2.90;;
55078;SDS011;55187;49.496;6.010;2022-07-06T04:28:34;5.05;;;2.38;;
55078;SDS011;55187;49.496;6.010;2022-07-06T04:31:01;5.13;;;2.40;;
55078;SDS011;55187;49.496;6.010;2022-07-06T04:33:27;4.97;;;2.85;;
55078;SDS011;55187;49.496;6.010;2022-07-06T04:35:54;9.07;;;3.30;;
55078;SDS011;55187;49.496;6.010;2022-07-06T04:38:24;13.23;;;3.58;;
55078;SDS011;55187;49.496;6.010;2022-07-06T04:40:52;4.53;;;2.55;;
55078;SDS011;55187;49.496;6.010;2022-07-06T04:43:20;5.72;;;3.30;;
55078;SDS011;55187;49.496;6.010;2022-07-06T04:45:46;7.20;;;3.63;;
55078;SDS011;55187;49.496;6.010;2022-07-06T04:48:13;8.30;;;2.78;;
55078;SDS011;55187;49.496;6.010;2022-07-06T04:50:40;4.65;;;2.67;;
55078;SDS011;55187;49.496;6.010;2022-07-06T04:53:09;3.95;;;2.88;;
55078;SDS011;55187;49.496;6.010;2022-07-06T04:55:36;7.32;;;3.45;;
55078;SDS011;55187;49.496;6.010;2022-07-06T04:58:03;3.38;;;2.80;;
55078;SDS011;55187;49.496;6.010;2022-07-06T05:00:29;9.27;;;2.78;;
55078;SDS011;55187;49.496;6.010;2022-07-06T05:02:55;9.05;;;2.78;;
55078;SDS011;55187;49.496;6.010;2022-07-06T05:05:25;9.10;;;2.97;;
55078;SDS011;55187;49.496;6.010;2022-07-06T05:07:52;3.55;;;2.20;;
55078;SDS011;55187;49.496;6.010;2022-07-06T05:10:21;8.90;;;2.92;;
55078;SDS011;55187;49.496;6.010;2022-07-06T05:12:59;8.88;;;3.38;;
55078;SDS011;55187;49.496;6.010;2022-07-06T05:15:27;3.08;;;2.08;;
55078;SDS011;55187;49.496;6.010;2022-07-06T05:17:54;3.80;;;2.65;;
55078;SDS011;55187;49.496;6.010;2022-07-06T05:20:20;4.15;;;2.17;;
55078;SDS011;55187;49.496;6.010;2022-07-06T05:22:48;4.80;;;2.80;;
55078;SDS011;55187;49.496;6.010;2022-07-06T05:25:18;2.83;;;1.92;;
55078;SDS011;55187;49.496;6.010;2022-07-06T05:27:45;7.60;;;3.05;;
55078;SDS011;55187;49.496;6.010;2022-07-06T05:30:12;8.45;;;2.88;;
55078;SDS011;55187;49.496;6.010;2022-07-06T05:32:42;5.68;;;2.75;;
55078;SDS011;55187;49.496;6.010;2022-07-06T05:35:08;5.47;;;2.75;;
55078;SDS011;55187;49.496;6.010;2022-07-06T05:37:35;7.20;;;3.15;;
55078;SDS011;55187;49.496;6.010;2022-07-06T05:40:02;7.20;;;3.30;;
55078;SDS011;55187;49.496;6.010;2022-07-06T05:42:29;8.63;;;3.80;;
55078;SDS011;55187;49.496;6.010;2022-07-06T05:44:56;5.72;;;3.30;;
55078;SDS011;55187;49.496;6.010;2022-07-06T05:47:25;11.90;;;4.32;;
55078;SDS011;55187;49.496;6.010;2022-07-06T05:50:04;9.18;;;3.40;;
55078;SDS011;55187;49.496;6.010;2022-07-06T05:52:54;12.43;;;3.95;;
55078;SDS011;55187;49.496;6.010;2022-07-06T05:55:23;4.40;;;2.58;;
55078;SDS011;55187;49.496;6.010;2022-07-06T05:57:51;3.70;;;2.90;;
55078;SDS011;55187;49.496;6.010;2022-07-06T06:00:22;6.68;;;2.70;;
55078;SDS011;55187;49.496;6.010;2022-07-06T06:02:53;10.27;;;2.13;;
55078;SDS011;55187;49.496;6.010;2022-07-06T06:05:20;4.53;;;2.47;;
55078;SDS011;55187;49.496;6.010;2022-07-06T06:07:50;6.25;;;1.98;;
55078;SDS011;55187;49.496;6.010;2022-07-06T06:10:21;5.45;;;2.65;;
55078;SDS011;55187;49.496;6.010;2022-07-06T06:12:50;3.40;;;2.15;;
55078;SDS011;55187;49.496;6.010;2022-07-06T06:15:17;4.50;;;1.80;;
55078;SDS011;55187;49.496;6.010;2022-07-06T06:17:44;5.28;;;1.95;;
55078;SDS011;55187;49.496;6.010;2022-07-06T06:20:11;4.65;;;1.90;;
55078;SDS011;55187;49.496;6.010;2022-07-06T06:22:45;9.60;;;1.63;;
55078;SDS011;55187;49.496;6.010;2022-07-06T06:25:20;3.65;;;1.42;;
55078;SDS011;55187;49.496;6.010;2022-07-06T06:27:56;2.45;;;1.60;;
55078;SDS011;55187;49.496;6.010;2022-07-06T06:30:22;3.70;;;1.55;;
55078;SDS011;55187;49.496;6.010;2022-07-06T06:32:49;4.82;;;1.90;;
55078;SDS011;55187;49.496;6.010;2022-07-06T06:35:15;5.95;;;1.95;;
55078;SDS011;55187;49.496;6.010;2022-07-06T06:37:43;3.85;;;1.42;;
55078;SDS011;55187;49.496;6.010;2022-07-06T06:40:09;4.30;;;1.20;;
55078;SDS011;55187;49.496;6.010;2022-07-06T06:42:36;6.60;;;1.40;;
55078;SDS011;55187;49.496;6.010;2022-07-06T06:45:11;4.65;;;1.63;;
55078;SDS011;55187;49.496;6.010;2022-07-06T06:47:37;1.90;;;0.90;;
55078;SDS011;55187;49.496;6.010;2022-07-06T06:50:25;2.47;;;1.15;;
55078;SDS011;55187;49.496;6.010;2022-07-06T06:52:52;3.92;;;1.33;;
55078;SDS011;55187;49.496;6.010;2022-07-06T06:55:18;3.40;;;0.82;;
55078;SDS011;55187;49.496;6.010;2022-07-06T06:57:45;1.45;;;0.68;;
55078;SDS011;55187;49.496;6.010;2022-07-06T07:00:12;2.80;;;0.85;;
55078;SDS011;55187;49.496;6.010;2022-07-06T07:02:39;4.85;;;1.08;;
55078;SDS011;55187;49.496;6.010;2022-07-06T07:05:05;7.60;;;1.42;;
55078;SDS011;55187;49.496;6.010;2022-07-06T07:07:32;2.20;;;0.93;;
55078;SDS011;55187;49.496;6.010;2022-07-06T07:09:59;1.77;;;0.82;;
55078;SDS011;55187;49.496;6.010;2022-07-06T07:12:26;3.53;;;1.05;;
55078;SDS011;55187;49.496;6.010;2022-07-06T07:14:52;2.33;;;1.05;;
55078;SDS011;55187;49.496;6.010;2022-07-06T07:17:19;1.60;;;0.80;;
55078;SDS011;55187;49.496;6.010;2022-07-06T07:19:45;0.98;;;0.65;;
55078;SDS011;55187;49.496;6.010;2022-07-06T07:22:12;5.30;;;1.23;;
55078;SDS011;55187;49.496;6.010;2022-07-06T07:24:38;3.05;;;0.90;;
55078;SDS011;55187;49.496;6.010;2022-07-06T07:27:05;2.80;;;1.00;;
55078;SDS011;55187;49.496;6.010;2022-07-06T07:29:31;2.90;;;0.93;;
55078;SDS011;55187;49.496;6.010;2022-07-06T07:32:01;3.60;;;0.70;;
55078;SDS011;55187;49.496;6.010;2022-07-06T07:34:28;0.80;;;0.60;;
55078;SDS011;55187;49.496;6.010;2022-07-06T07:36:54;0.93;;;0.80;;
55078;SDS011;55187;49.496;6.010;2022-07-06T07:39:20;1.52;;;0.80;;
55078;SDS011;55187;49.496;6.010;2022-07-06T07:41:47;1.35;;;0.98;;
55078;SDS011;55187;49.496;6.010;2022-07-06T07:44:16;1.52;;;0.70;;
55078;SDS011;55187;49.496;6.010;2022-07-06T07:46:43;3.42;;;1.05;;
55078;SDS011;55187;49.496;6.010;2022-07-06T07:49:09;1.65;;;0.68;;
55078;SDS011;55187;49.496;6.010;2022-07-06T07:51:38;5.60;;;0.93;;
55078;SDS011;55187;49.496;6.010;2022-07-06T07:54:04;1.58;;;0.80;;
55078;SDS011;55187;49.496;6.010;2022-07-06T07:56:34;1.00;;;0.80;;
55078;SDS011;55187;49.496;6.010;2022-07-06T07:59:01;1.50;;;0.88;;
55078;SDS011;55187;49.496;6.010;2022-07-06T08:01:30;3.30;;;0.88;;
55078;SDS011;55187;49.496;6.010;2022-07-06T08:03:56;1.38;;;0.82;;
55078;SDS011;55187;49.496;6.010;2022-07-06T08:06:23;2.70;;;0.80;;
55078;SDS011;55187;49.496;6.010;2022-07-06T08:08:50;3.03;;;0.95;;
55078;SDS011;55187;49.496;6.010;2022-07-06T08:11:16;3.80;;;0.80;;
55078;SDS011;55187;49.496;6.010;2022-07-06T08:13:43;4.45;;;1.35;;
55078;SDS011;55187;49.496;6.010;2022-07-06T08:16:10;0.95;;;0.90;;
55078;SDS011;55187;49.496;6.010;2022-07-06T08:18:37;2.22;;;1.00;;
55078;SDS011;55187;49.496;6.010;2022-07-06T08:21:03;2.45;;;0.90;;
55078;SDS011;55187;49.496;6.010;2022-07-06T08:23:30;1.98;;;0.93;;
55078;SDS011;55187;49.496;6.010;2022-07-06T08:25:57;2.58;;;1.00;;
55078;SDS011;55187;49.496;6.010;2022-07-06T08:28:23;1.55;;;0.80;;
55078;SDS011;55187;49.496;6.010;2022-07-06T08:30:49;1.63;;;0.75;;
55078;SDS011;55187;49.496;6.010;2022-07-06T08:33:16;3.05;;;0.80;;
55078;SDS011;55187;49.496;6.010;2022-07-06T08:35:42;0.70;;;0.65;;
55078;SDS011;55187;49.496;6.010;2022-07-06T08:38:09;3.10;;;0.80;;
55078;SDS011;55187;49.496;6.010;2022-07-06T08:40:35;1.60;;;0.90;;
55078;SDS011;55187;49.496;6.010;2022-07-06T08:43:04;2.67;;;0.80;;
55078;SDS011;55187;49.496;6.010;2022-07-06T08:45:30;4.53;;;0.90;;
55078;SDS011;55187;49.496;6.010;2022-07-06T08:48:03;2.08;;;0.80;;
55078;SDS011;55187;49.496;6.010;2022-07-06T08:50:31;2.78;;;1.20;;
55078;SDS011;55187;49.496;6.010;2022-07-06T08:52:59;1.55;;;0.77;;
55078;SDS011;55187;49.496;6.010;2022-07-06T08:55:26;0.98;;;0.80;;
55078;SDS011;55187;49.496;6.010;2022-07-06T08:57:54;2.13;;;0.80;;
55078;SDS011;55187;49.496;6.010;2022-07-06T09:00:22;1.35;;;0.75;;
55078;SDS011;55187;49.496;6.010;2022-07-06T09:02:51;1.52;;;1.00;;
55078;SDS011;55187;49.496;6.010;2022-07-06T09:05:21;3.75;;;1.45;;
55078;SDS011;55187;49.496;6.010;2022-07-06T09:07:49;1.80;;;0.82;;
55078;SDS011;55187;49.496;6.010;2022-07-06T09:10:20;4.22;;;0.90;;
55078;SDS011;55187;49.496;6.010;2022-07-06T09:12:48;4.07;;;0.80;;
55078;SDS011;55187;49.496;6.010;2022-07-06T09:15:15;5.25;;;1.27;;
55078;SDS011;55187;49.496;6.010;2022-07-06T09:17:42;2.90;;;1.02;;
55078;SDS011;55187;49.496;6.010;2022-07-06T09:20:10;1.70;;;1.05;;
55078;SDS011;55187;49.496;6.010;2022-07-06T09:22:38;4.78;;;1.33;;
55078;SDS011;55187;49.496;6.010;2022-07-06T09:25:10;3.92;;;1.10;;
55078;SDS011;55187;49.496;6.010;2022-07-06T09:27:41;4.90;;;1.35;;
55078;SDS011;55187;49.496;6.010;2022-07-06T09:30:13;3.83;;;1.08;;
55078;SDS011;55187;49.496;6.010;2022-07-06T09:32:41;4.30;;;1.10;;
55078;SDS011;55187;49.496;6.010;2022-07-06T09:37:42;6.23;;;1.03;;
55078;SDS011;55187;49.496;6.010;2022-07-06T09:40:15;1.20;;;0.80;;
55078;SDS011;55187;49.496;6.010;2022-07-06T09:42:47;3.47;;;1.13;;
55078;SDS011;55187;49.496;6.010;2022-07-06T09:45:19;3.47;;;1.08;;
55078;SDS011;55187;49.496;6.010;2022-07-06T09:47:50;1.40;;;1.20;;
55078;SDS011;55187;49.496;6.010;2022-07-06T09:50:16;2.60;;;1.17;;
55078;SDS011;55187;49.496;6.010;2022-07-06T09:52:53;2.58;;;1.15;;
55078;SDS011;55187;49.496;6.010;2022-07-06T09:55:21;2.08;;;0.70;;
55078;SDS011;55187;49.496;6.010;2022-07-06T10:00:19;7.35;;;1.40;;
55078;SDS011;55187;49.496;6.010;2022-07-06T10:02:46;3.45;;;0.90;;
55078;SDS011;55187;49.496;6.010;2022-07-06T10:05:15;6.97;;;1.10;;
55078;SDS011;55187;49.496;6.010;2022-07-06T10:07:46;7.25;;;1.20;;
55078;SDS011;55187;49.496;6.010;2022-07-06T10:10:16;4.47;;;1.50;;
55078;SDS011;55187;49.496;6.010;2022-07-06T10:12:44;4.65;;;1.95;;
55078;SDS011;55187;49.496;6.010;2022-07-06T10:15:15;3.03;;;1.00;;
55078;SDS011;55187;49.496;6.010;2022-07-06T10:17:42;5.40;;;1.17;;
55078;SDS011;55187;49.496;6.010;2022-07-06T10:20:10;2.30;;;1.08;;
55078;SDS011;55187;49.496;6.010;2022-07-06T10:22:37;2.45;;;0.93;;
55078;SDS011;55187;49.496;6.010;2022-07-06T10:25:05;2.83;;;0.82;;
55078;SDS011;55187;49.496;6.010;2022-07-06T10:27:32;1.15;;;1.02;;
55078;SDS011;55187;49.496;6.010;2022-07-06T10:29:59;2.58;;;1.20;;
55078;SDS011;55187;49.496;6.010;2022-07-06T10:32:25;4.18;;;1.30;;
55078;SDS011;55187;49.496;6.010;2022-07-06T10:34:52;2.08;;;0.95;;
55078;SDS011;55187;49.496;6.010;2022-07-06T10:37:23;2.25;;;1.42;;
55078;SDS011;55187;49.496;6.010;2022-07-06T10:39:51;6.10;;;1.90;;
55078;SDS011;55187;49.496;6.010;2022-07-06T10:45:11;2.55;;;0.75;;
55078;SDS011;55187;49.496;6.010;2022-07-06T10:47:40;1.85;;;1.13;;
55078;SDS011;55187;49.496;6.010;2022-07-06T10:50:08;2.75;;;1.02;;
55078;SDS011;55187;49.496;6.010;2022-07-06T10:57:58;2.92;;;0.70;;
55078;SDS011;55187;49.496;6.010;2022-07-06T11:00:26;1.25;;;0.60;;
55078;SDS011;55187;49.496;6.010;2022-07-06T11:06:02;9.43;;;1.60;;
55078;SDS011;55187;49.496;6.010;2022-07-06T11:08:42;3.30;;;1.20;;
55078;SDS011;55187;49.496;6.010;2022-07-06T11:11:23;1.33;;;1.23;;
55078;SDS011;55187;49.496;6.010;2022-07-06T11:13:53;1.60;;;1.15;;
55078;SDS011;55187;49.496;6.010;2022-07-06T11:16:22;5.90;;;1.08;;
55078;SDS011;55187;49.496;6.010;2022-07-06T11:23:58;1.23;;;0.82;;
55078;SDS011;55187;49.496;6.010;2022-07-06T11:26:26;3.65;;;1.00;;
55078;SDS011;55187;49.496;6.010;2022-07-06T11:28:55;1.95;;;1.00;;
55078;SDS011;55187;49.496;6.010;2022-07-06T11:31:24;1.55;;;0.68;;
55078;SDS011;55187;49.496;6.010;2022-07-06T11:33:51;2.28;;;0.73;;
55078;SDS011;55187;49.496;6.010;2022-07-06T11:36:18;2.38;;;0.90;;
55078;SDS011;55187;49.496;6.010;2022-07-06T11:38:46;1.00;;;0.88;;
55078;SDS011;55187;49.496;6.010;2022-07-06T11:41:15;2.42;;;0.85;;
55078;SDS011;55187;49.496;6.010;2022-07-06T11:43:43;4.70;;;0.98;;
55078;SDS011;55187;49.496;6.010;2022-07-06T11:48:46;4.07;;;0.77;;
55078;SDS011;55187;49.496;6.010;2022-07-06T11:51:14;3.92;;;1.17;;
55078;SDS011;55187;49.496;6.010;2022-07-06T11:53:42;4.18;;;1.30;;
55078;SDS011;55187;49.496;6.010;2022-07-06T11:56:12;4.72;;;1.10;;
55078;SDS011;55187;49.496;6.010;2022-07-06T11:58:41;1.17;;;1.02;;
55078;SDS011;55187;49.496;6.010;2022-07-06T12:01:10;3.17;;;1.20;;
55078;SDS011;55187;49.496;6.010;2022-07-06T12:03:37;3.40;;;0.68;;
55078;SDS011;55187;49.496;6.010;2022-07-06T12:06:04;1.77;;;1.00;;
55078;SDS011;55187;49.496;6.010;2022-07-06T12:08:32;9.05;;;1.52;;
55078;SDS011;55187;49.496;6.010;2022-07-06T12:11:10;2.47;;;1.20;;
55078;SDS011;55187;49.496;6.010;2022-07-06T12:13:43;3.13;;;1.08;;
55078;SDS011;55187;49.496;6.010;2022-07-06T12:16:10;6.00;;;1.73;;
55078;SDS011;55187;49.496;6.010;2022-07-06T12:18:38;3.33;;;1.15;;
55078;SDS011;55187;49.496;6.010;2022-07-06T12:21:07;3.97;;;1.08;;
55078;SDS011;55187;49.496;6.010;2022-07-06T12:23:39;2.22;;;1.08;;
55078;SDS011;55187;49.496;6.010;2022-07-06T12:26:14;2.80;;;1.13;;
55078;SDS011;55187;49.496;6.010;2022-07-06T12:28:42;3.50;;;1.30;;
55078;SDS011;55187;49.496;6.010;2022-07-06T12:31:10;1.58;;;1.23;;
55078;SDS011;55187;49.496;6.010;2022-07-06T12:33:37;2.42;;;1.38;;
55078;SDS011;55187;49.496;6.010;2022-07-06T12:36:10;1.75;;;1.55;;
55078;SDS011;55187;49.496;6.010;2022-07-06T12:38:46;1.88;;;0.85;;
55078;SDS011;55187;49.496;6.010;2022-07-06T12:44:02;2.95;;;1.33;;
55078;SDS011;55187;49.496;6.010;2022-07-06T12:46:34;3.40;;;1.35;;
55078;SDS011;55187;49.496;6.010;2022-07-06T12:49:04;9.80;;;0.88;;
55078;SDS011;55187;49.496;6.010;2022-07-06T12:54:21;1.98;;;0.90;;
55078;SDS011;55187;49.496;6.010;2022-07-06T12:59:21;1.13;;;0.83;;
55078;SDS011;55187;49.496;6.010;2022-07-06T13:01:48;9.05;;;1.30;;
55078;SDS011;55187;49.496;6.010;2022-07-06T13:04:16;2.47;;;0.70;;
55078;SDS011;55187;49.496;6.010;2022-07-06T13:06:43;1.52;;;0.90;;
55078;SDS011;55187;49.496;6.010;2022-07-06T13:09:09;2.38;;;1.00;;
55078;SDS011;55187;49.496;6.010;2022-07-06T13:11:35;4.68;;;1.10;;
55078;SDS011;55187;49.496;6.010;2022-07-06T13:14:02;4.13;;;1.20;;
55078;SDS011;55187;49.496;6.010;2022-07-06T13:16:28;3.17;;;0.90;;
55078;SDS011;55187;49.496;6.010;2022-07-06T13:19:01;0.77;;;0.60;;
55078;SDS011;55187;49.496;6.010;2022-07-06T13:21:28;0.70;;;0.65;;
55078;SDS011;55187;49.496;6.010;2022-07-06T13:23:56;2.45;;;1.13;;
55078;SDS011;55187;49.496;6.010;2022-07-06T13:26:22;1.30;;;0.88;;
55078;SDS011;55187;49.496;6.010;2022-07-06T13:28:48;2.55;;;0.88;;
55078;SDS011;55187;49.496;6.010;2022-07-06T13:31:15;0.43;;;0.40;;
55078;SDS011;55187;49.496;6.010;2022-07-06T13:33:41;1.55;;;0.95;;
55078;SDS011;55187;49.496;6.010;2022-07-06T13:36:08;0.95;;;0.70;;
55078;SDS011;55187;49.496;6.010;2022-07-06T13:38:34;3.83;;;1.83;;
55078;SDS011;55187;49.496;6.010;2022-07-06T13:41:00;2.53;;;0.98;;
55078;SDS011;55187;49.496;6.010;2022-07-06T13:43:26;2.13;;;1.08;;
55078;SDS011;55187;49.496;6.010;2022-07-06T13:46:03;0.68;;;0.68;;
55078;SDS011;55187;49.496;6.010;2022-07-06T13:48:30;3.70;;;1.20;;
55078;SDS011;55187;49.496;6.010;2022-07-06T13:50:58;2.70;;;0.82;;
55078;SDS011;55187;49.496;6.010;2022-07-06T13:53:25;2.58;;;1.23;;
55078;SDS011;55187;49.496;6.010;2022-07-06T13:55:51;2.33;;;0.95;;
55078;SDS011;55187;49.496;6.010;2022-07-06T13:58:18;4.95;;;1.02;;
55078;SDS011;55187;49.496;6.010;2022-07-06T14:00:46;0.90;;;0.80;;
55078;SDS011;55187;49.496;6.010;2022-07-06T14:03:12;2.20;;;0.88;;
55078;SDS011;55187;49.496;6.010;2022-07-06T14:05:39;3.47;;;0.90;;
55078;SDS011;55187;49.496;6.010;2022-07-06T14:08:05;3.10;;;0.93;;
55078;SDS011;55187;49.496;6.010;2022-07-06T14:10:31;12.15;;;1.30;;
55078;SDS011;55187;49.496;6.010;2022-07-06T14:12:58;1.80;;;0.65;;
55078;SDS011;55187;49.496;6.010;2022-07-06T14:15:24;2.30;;;0.93;;
55078;SDS011;55187;49.496;6.010;2022-07-06T14:17:50;0.90;;;0.85;;
55078;SDS011;55187;49.496;6.010;2022-07-06T14:20:17;3.45;;;1.23;;
55078;SDS011;55187;49.496;6.010;2022-07-06T14:22:44;4.50;;;1.10;;
55078;SDS011;55187;49.496;6.010;2022-07-06T14:25:11;2.47;;;1.00;;
55078;SDS011;55187;49.496;6.010;2022-07-06T14:27:38;1.25;;;0.90;;
55078;SDS011;55187;49.496;6.010;2022-07-06T14:30:06;2.50;;;0.93;;
55078;SDS011;55187;49.496;6.010;2022-07-06T14:32:33;1.23;;;0.77;;
55078;SDS011;55187;49.496;6.010;2022-07-06T14:34:59;2.15;;;0.98;;
55078;SDS011;55187;49.496;6.010;2022-07-06T14:37:25;4.25;;;1.30;;
55078;SDS011;55187;49.496;6.010;2022-07-06T14:39:52;1.30;;;0.85;;
55078;SDS011;55187;49.496;6.010;2022-07-06T14:42:18;4.78;;;1.08;;
55078;SDS011;55187;49.496;6.010;2022-07-06T14:44:44;3.33;;;0.95;;
55078;SDS011;55187;49.496;6.010;2022-07-06T14:47:11;1.52;;;1.05;;
55078;SDS011;55187;49.496;6.010;2022-07-06T14:49:37;9.68;;;1.25;;
55078;SDS011;55187;49.496;6.010;2022-07-06T14:52:04;5.82;;;1.48;;
55078;SDS011;55187;49.496;6.010;2022-07-06T14:54:34;3.15;;;0.80;;
55078;SDS011;55187;49.496;6.010;2022-07-06T14:57:02;4.55;;;1.08;;
55078;SDS011;55187;49.496;6.010;2022-07-06T14:59:30;1.48;;;0.98;;
55078;SDS011;55187;49.496;6.010;2022-07-06T15:01:57;1.70;;;0.90;;
55078;SDS011;55187;49.496;6.010;2022-07-06T15:04:23;1.00;;;0.65;;
55078;SDS011;55187;49.496;6.010;2022-07-06T15:06:50;2.83;;;0.90;;
55078;SDS011;55187;49.496;6.010;2022-07-06T15:09:16;4.68;;;1.10;;
55078;SDS011;55187;49.496;6.010;2022-07-06T15:11:43;2.88;;;1.27;;
55078;SDS011;55187;49.496;6.010;2022-07-06T15:14:11;3.60;;;0.90;;
55078;SDS011;55187;49.496;6.010;2022-07-06T15:16:38;1.85;;;1.00;;
55078;SDS011;55187;49.496;6.010;2022-07-06T15:19:05;1.27;;;0.80;;
55078;SDS011;55187;49.496;6.010;2022-07-06T15:21:32;1.95;;;1.30;;
55078;SDS011;55187;49.496;6.010;2022-07-06T15:23:58;7.50;;;0.95;;